Flight Track Log - Related Links

Times and Time Zones

All times are in EDT time to prevent confusion due to time zone crossing. See the SWA2852 flight status page for this flight to view local times or setup timezone preferences in your user account.

Time Position Orientation Groundspeed Altitude Reporting Facility
EDT Latitude Longitude Course Direction KTS MPH feet Rate Location/Type
Mon 07:37:14 PM 41.7833 -87.7000 160° South 177 204 2,300  Level Chicago TRACON
Mon 07:38:14 PM 41.7500 -87.6833 160° South 218 251 4,400 1,762 Climbing Chicago TRACON
Mon 07:39:20 PM 41.6667 -87.6667 172° South 251 289 6,000 850 Climbing Chicago TRACON
Mon 07:40:14 PM 41.6000 -87.6833 191° South 259 298 6,100 1,137 Climbing Chicago TRACON
Mon 07:40:55 PM 41.5922 -87.7231 255° West 257 296 7,800 3,204 Climbing Chicago Center
Mon 07:41:57 PM 41.5656 -87.8119 248° West 261 300 11,600 2,049 Climbing Chicago Center
Mon 07:42:58 PM 41.5181 -87.9172 239° Southwest 277 319 12,000 1,610 Climbing Chicago Center
Mon 07:44:00 PM 41.4792 -88.0042 239° Southwest 277 319 14,900 2,468 Climbing Chicago Center
Mon 07:45:02 PM 41.4369 -88.0964 239° Southwest 293 337 17,100 1,742 Climbing Chicago Center
Mon 07:46:04 PM 41.3394 -88.1594 206° Southwest 367 422 18,500 2,049 Climbing Chicago Center
Mon 07:47:05 PM 41.2369 -88.2111 201° Southwest 395 455 21,300 2,537 Climbing Chicago Center
Mon 07:48:07 PM 41.1303 -88.2653 201° Southwest 406 467 23,700 2,129 Climbing Chicago Center
Mon 07:49:09 PM 41.0175 -88.3222 201° Southwest 428 493 25,700 1,984 Climbing Chicago Center
Mon 07:50:11 PM 40.9000 -88.3794 200° South 445 512 27,800 2,371 Climbing Chicago Center
Mon 07:51:13 PM 40.7608 -88.4475 200° South 448 516 30,600 2,293 Climbing Chicago Center
Mon 07:52:14 PM 40.6453 -88.5053 201° Southwest 449 517 32,500 1,854 Climbing Chicago Center
Mon 07:53:16 PM 40.5281 -88.5622 200° South 451 519 34,400 1,839 Climbing Chicago Center
Mon 07:54:18 PM 40.4156 -88.6181 201° Southwest 449 517 36,300 1,742 Climbing Chicago Center
Mon 07:55:20 PM 40.3050 -88.6833 204° Southwest 432 497 38,000 1,403 Climbing Chicago Center
Mon 07:56:22 PM 40.2183 -88.7917 224° Southwest 427 491 39,200 968 Climbing Chicago Center
Mon 07:57:24 PM 40.1336 -88.9000 224° Southwest 426 490 40,000 390 Climbing Chicago Center
Mon 07:58:25 PM 40.0314 -89.0308 224° Southwest 427 491 40,000  Level Chicago Center
Mon 07:59:14 PM 39.9811 -89.0939 224° Southwest 427 491 40,000  Level Kansas City Center
Mon 08:00:15 PM 39.8961 -89.2008 224° Southwest 424 488 40,000  Level Kansas City Center
Mon 08:01:16 PM 39.7942 -89.3294 224° Southwest 424 488 40,000  Level Kansas City Center
Mon 08:02:17 PM 39.7092 -89.4364 224° Southwest 424 488 40,000  Level Kansas City Center
Mon 08:03:17 PM 39.6339 -89.5300 224° Southwest 425 489 40,000  Level Kansas City Center
Mon 08:04:20 PM 39.5314 -89.6567 224° Southwest 426 490 40,000  Level Kansas City Center
Mon 08:05:21 PM 39.4469 -89.7644 225° Southwest 427 491 40,000  Level Kansas City Center
Mon 08:06:22 PM 39.3622 -89.8703 224° Southwest 425 489 40,000  Level Kansas City Center
Mon 08:07:24 PM 39.2775 -89.9742 224° Southwest 423 487 40,000  Level Kansas City Center
Mon 08:08:27 PM 39.1922 -90.0792 224° Southwest 423 487 40,000  Level Kansas City Center
Mon 08:09:29 PM 39.1072 -90.1833 224° Southwest 424 488 40,000  Level Kansas City Center
Mon 08:10:29 PM 39.0233 -90.2858 224° Southwest 420 483 40,000  Level Kansas City Center
Mon 08:11:30 PM 38.9233 -90.4058 223° Southwest 413 475 40,000  Level Kansas City Center
Mon 08:12:31 PM 38.8422 -90.5078 224° Southwest 408 470 40,000  Level Kansas City Center
Mon 08:13:35 PM 38.7828 -90.6347 239° Southwest 411 473 40,000  Level Kansas City Center
Mon 08:14:36 PM 38.7253 -90.7472 237° Southwest 403 464 40,000  Level Kansas City Center
Mon 08:15:36 PM 38.6644 -90.8672 237° Southwest 404 465 40,000  Level Kansas City Center
Mon 08:16:38 PM 38.6031 -90.9889 237° Southwest 407 468 40,000  Level Kansas City Center
Mon 08:17:40 PM 38.5294 -91.1317 237° Southwest 405 466 40,000  Level Kansas City Center
Mon 08:18:40 PM 38.4686 -91.2500 237° Southwest 402 463 40,000  Level Kansas City Center
Mon 08:19:45 PM 38.4061 -91.3711 237° Southwest 408 470 40,000  Level Kansas City Center
Mon 08:20:46 PM 38.3367 -91.5022 236° Southwest 405 466 40,000  Level Kansas City Center
Mon 08:21:47 PM 38.2747 -91.6222 237° Southwest 404 465 40,000  Level Kansas City Center
Mon 08:22:49 PM 38.2122 -91.7414 236° Southwest 404 465 40,000  Level Kansas City Center
Mon 08:23:49 PM 38.1503 -91.8592 236° Southwest 400 460 40,000  Level Kansas City Center
Mon 08:24:50 PM 38.0881 -91.9767 236° Southwest 399 459 40,000  Level Kansas City Center
Mon 08:25:54 PM 38.0225 -92.1019 236° Southwest 398 458 40,000  Level Kansas City Center
Mon 08:26:55 PM 37.9622 -92.2158 236° Southwest 393 452 40,000  Level Kansas City Center
Mon 08:27:55 PM 37.9028 -92.3331 237° Southwest 395 455 40,000  Level Kansas City Center
Mon 08:28:57 PM 37.8375 -92.4439 233° Southwest 395 455 40,000  Level Kansas City Center
Mon 08:29:57 PM 37.7786 -92.5575 237° Southwest 389 448 40,000  Level Kansas City Center
Mon 08:30:58 PM 37.7178 -92.6714 236° Southwest 391 450 40,000  Level Kansas City Center
Mon 08:32:02 PM 37.6533 -92.7922 236° Southwest 395 455 40,000  Level Kansas City Center
Mon 08:33:03 PM 37.5906 -92.9064 235° Southwest 395 455 40,000  Level Kansas City Center
Mon 08:34:04 PM 37.5283 -93.0203 235° Southwest 394 453 40,000  Level Kansas City Center
Mon 08:35:04 PM 37.4533 -93.1575 235° Southwest 394 453 40,000  Level Kansas City Center
Mon 08:36:06 PM 37.3919 -93.2719 236° Southwest 394 453 40,000  Level Kansas City Center
Mon 08:37:08 PM 37.3306 -93.3858 236° Southwest 393 452 40,000  Level Kansas City Center
Mon 08:38:09 PM 37.2761 -93.5047 240° Southwest 392 451 40,000  Level Kansas City Center
Mon 08:39:10 PM 37.2236 -93.6258 241° Southwest 393 452 40,000  Level Kansas City Center
Mon 08:40:14 PM 37.1689 -93.7442 240° Southwest 393 452 40,000  Level Kansas City Center
Mon 08:41:14 PM 37.1119 -93.8664 240° Southwest 390 449 40,000  Level Kansas City Center
Mon 08:42:15 PM 37.0575 -93.9842 240° Southwest 390 449 40,000  Level Kansas City Center
Mon 08:43:16 PM 37.0150 -94.1069 247° West 386 444 40,000  Level Kansas City Center
Mon 08:44:17 PM 36.9775 -94.2347 250° West 389 448 40,000  Level Kansas City Center
Mon 08:45:18 PM 36.9375 -94.3611 248° West 391 450 40,000  Level Kansas City Center
Mon 08:46:20 PM 36.8967 -94.4878 248° West 393 452 40,000  Level Kansas City Center
Mon 08:47:21 PM 36.8550 -94.6156 248° West 396 456 40,000  Level Kansas City Center
Mon 08:48:25 PM 36.8075 -94.7658 248° West 391 450 40,000  Level Kansas City Center
Mon 08:49:26 PM 36.7667 -94.8931 248° West 393 452 40,000  Level Kansas City Center
Mon 08:50:27 PM 36.7261 -95.0203 248° West 394 453 40,000  Level Kansas City Center
Mon 08:51:27 PM 36.6844 -95.1467 248° West 395 455 40,000  Level Kansas City Center
Mon 08:52:28 PM 36.6431 -95.2733 248° West 396 456 40,000  Level Kansas City Center
Mon 08:53:29 PM 36.6039 -95.3947 248° West 396 456 40,000  Level Kansas City Center
Mon 08:54:33 PM 36.5633 -95.5178 248° West 389 448 40,000  Level Kansas City Center
Mon 08:55:34 PM 36.5156 -95.6603 247° West 376 433 40,000  Level Kansas City Center
Mon 08:56:35 PM 36.4756 -95.7811 248° West 376 433 40,000 -195 Level Kansas City Center
Mon 08:57:37 PM 36.4344 -95.9044 248° West 382 440 39,600 -927 Descending Kansas City Center
Mon 08:58:38 PM 36.3936 -96.0267 247° West 384 442 38,100 -2,115 Descending Kansas City Center
Mon 08:59:39 PM 36.3539 -96.1456 247° West 380 437 35,300 -2,926 Descending Kansas City Center
Mon 09:00:39 PM 36.3136 -96.2661 248° West 378 435 32,200 -2,754 Descending Kansas City Center
Mon 09:01:41 PM 36.2722 -96.3864 247° West 379 436 29,700 -2,333 Descending Kansas City Center
Mon 09:02:45 PM 36.2339 -96.5011 248° West 370 426 27,300 -2,419 Descending Kansas City Center
Mon 09:03:45 PM 36.1903 -96.6300 247° West 344 396 24,700 -2,311 Descending Kansas City Center
Mon 09:04:47 PM 36.1547 -96.7336 247° West 331 381 22,600 -2,146 Descending Kansas City Center
Mon 09:05:48 PM 36.1194 -96.8356 247° West 328 377 20,300 -2,098 Descending Kansas City Center
Mon 09:06:50 PM 36.0819 -96.9444 247° West 341 392 18,300 -2,164 Descending Kansas City Center
Mon 09:07:50 PM 36.0464 -97.0458 247° West 329 379 15,900 -3,150 Descending Kansas City Center
Mon 09:08:50 PM 36.0103 -97.1492 247° West 327 376 12,000 -2,876 Descending Kansas City Center
Mon 09:09:51 PM 35.9442 -97.2311 225° Southwest 336 387 10,100 -1,317 Descending Kansas City Center
Mon 09:10:53 PM 35.8769 -97.2844 213° Southwest 296 341 9,300 -1,248 Descending Kansas City Center
Mon 09:11:56 PM 35.7983 -97.3447 212° Southwest 280 322 7,500 -1,512 Descending Kansas City Center
Mon 09:12:56 PM 35.7353 -97.3947 213° Southwest 275 316 6,200 -1,289 Descending Kansas City Center
Mon 09:13:57 PM 35.6758 -97.4397 212° Southwest 260 299 4,900 -1,308 Descending Kansas City Center
Mon 09:14:14 PM 35.6544 -97.4569 213° Southwest 247 284 4,500 -701 Descending Fort Worth Center
Mon 09:15:14 PM 35.5981 -97.5003 212° Southwest 237 273 4,000 -545 Descending Fort Worth Center
Mon 09:16:15 PM 35.5458 -97.5411 212° Southwest 209 241 3,400 -414 Descending Fort Worth Center
Mon 09:17:10 PM 35.5042 -97.5742 213° Southwest 208 239 3,200 -417 Descending Fort Worth Center
Mon 09:18:10 PM 35.4667 -97.5919 201° Southwest 136 157 2,600 -694 Descending Fort Worth Center
Mon 09:19:11 PM 35.4269 -97.5919 180° South 121 139 1,800 -787 Descending Fort Worth Center

Login

Don't have an account? Register now (free) for customized features, flight alerts, and more!